Watford City, North Dakota
Current Conditions -  °F | °C
As of 3:52 AM on Sunday 23 Nov 2014 (Local Time) from KISN Reporting Station
Overcast Overcast  
Wind Chill: 21°   Ceiling: 2700
Heat Index: 33°   Visibility: 10mi
Dew Point: 23°   Wind: 23mph
Humidity: 66%   Direction: 290°WNW
Pressure: 29.4"   Gusts: 37mph
Location:  47.8°N, 103.28°W
Report Text: KISN 230952Z AUTO 29020G32KT 10SM OVC027 01/M05 A2940 RMK AO2 PK WND 28033/0904 SLP973 T00061050
Loading
Personal Weather Stations






























Interactive Weather Map New forecast layout! Learn more

10-Day Weather Forecast

Advertisements
Track Severe Weather on mobile